sensor_id;sensor_type;location;lat;lon;timestamp;noise_LAeq;noise_LA_min;noise_LA_max;noise_LA01;noise_LA95
41518;Laerm;27249;48.094;-1.690;2023-06-22T00:01:53;52.11;42.82;64.02;;
41518;Laerm;27249;48.094;-1.690;2023-06-22T00:04:18;50.20;41.14;60.34;;
41518;Laerm;27249;48.094;-1.690;2023-06-22T00:06:44;50.61;41.53;61.09;;
41518;Laerm;27249;48.094;-1.690;2023-06-22T00:09:09;49.67;41.82;62.13;;
41518;Laerm;27249;48.094;-1.690;2023-06-22T00:11:35;52.29;41.61;64.68;;
41518;Laerm;27249;48.094;-1.690;2023-06-22T00:14:02;52.72;42.41;64.55;;
41518;Laerm;27249;48.094;-1.690;2023-06-22T00:16:27;50.59;41.46;65.56;;
41518;Laerm;27249;48.094;-1.690;2023-06-22T00:18:52;52.12;42.41;63.15;;
41518;Laerm;27249;48.094;-1.690;2023-06-22T00:21:17;47.52;41.30;59.39;;
41518;Laerm;27249;48.094;-1.690;2023-06-22T00:23:45;52.90;40.71;63.52;;
41518;Laerm;27249;48.094;-1.690;2023-06-22T00:26:10;47.09;39.34;56.34;;
41518;Laerm;27249;48.094;-1.690;2023-06-22T00:28:36;51.08;41.68;63.68;;
41518;Laerm;27249;48.094;-1.690;2023-06-22T00:31:01;50.02;41.22;64.39;;
41518;Laerm;27249;48.094;-1.690;2023-06-22T00:33:27;48.03;41.38;59.12;;
41518;Laerm;27249;48.094;-1.690;2023-06-22T00:35:53;47.46;41.53;57.88;;
41518;Laerm;27249;48.094;-1.690;2023-06-22T00:38:19;48.54;40.98;59.57;;
41518;Laerm;27249;48.094;-1.690;2023-06-22T00:40:44;53.03;41.96;66.60;;
41518;Laerm;27249;48.094;-1.690;2023-06-22T00:43:09;51.73;41.30;62.44;;
41518;Laerm;27249;48.094;-1.690;2023-06-22T00:45:35;48.37;41.89;58.59;;
41518;Laerm;27249;48.094;-1.690;2023-06-22T00:48:00;50.05;41.82;63.02;;
41518;Laerm;27249;48.094;-1.690;2023-06-22T00:50:28;48.12;41.38;60.59;;
41518;Laerm;27249;48.094;-1.690;2023-06-22T00:52:57;46.99;41.14;59.07;;
41518;Laerm;27249;48.094;-1.690;2023-06-22T00:55:24;49.25;41.88;59.73;;
41518;Laerm;27249;48.094;-1.690;2023-06-22T00:57:51;49.58;41.38;61.80;;
41518;Laerm;27249;48.094;-1.690;2023-06-22T01:00:20;50.66;41.82;61.85;;
41518;Laerm;27249;48.094;-1.690;2023-06-22T01:02:46;52.45;42.41;60.09;;
41518;Laerm;27249;48.094;-1.690;2023-06-22T01:05:12;45.79;41.30;57.48;;
41518;Laerm;27249;48.094;-1.690;2023-06-22T01:10:07;50.89;41.82;69.23;;
41518;Laerm;27249;48.094;-1.690;2023-06-22T01:12:34;50.53;42.65;64.66;;
41518;Laerm;27249;48.094;-1.690;2023-06-22T01:17:58;50.02;42.09;63.18;;
41518;Laerm;27249;48.094;-1.690;2023-06-22T01:20:24;48.78;41.30;67.38;;
41518;Laerm;27249;48.094;-1.690;2023-06-22T01:23:09;50.79;41.38;63.10;;
41518;Laerm;27249;48.094;-1.690;2023-06-22T01:25:43;49.02;40.80;60.20;;
41518;Laerm;27249;48.094;-1.690;2023-06-22T01:30:40;48.12;41.96;58.93;;
41518;Laerm;27249;48.094;-1.690;2023-06-22T01:33:07;47.35;41.06;59.84;;
41518;Laerm;27249;48.094;-1.690;2023-06-22T01:35:35;45.37;41.30;54.74;;
41518;Laerm;27249;48.094;-1.690;2023-06-22T01:38:00;46.18;40.80;63.84;;
41518;Laerm;27249;48.094;-1.690;2023-06-22T01:40:26;47.13;41.30;58.22;;
41518;Laerm;27249;48.094;-1.690;2023-06-22T01:42:53;50.05;41.46;60.45;;
41518;Laerm;27249;48.094;-1.690;2023-06-22T01:45:18;51.48;41.22;64.59;;
41518;Laerm;27249;48.094;-1.690;2023-06-22T01:47:44;50.67;41.38;61.29;;
41518;Laerm;27249;48.094;-1.690;2023-06-22T01:50:09;49.08;41.96;59.97;;
41518;Laerm;27249;48.094;-1.690;2023-06-22T01:52:35;48.15;41.61;62.44;;
41518;Laerm;27249;48.094;-1.690;2023-06-22T01:55:00;49.35;41.46;63.82;;
41518;Laerm;27249;48.094;-1.690;2023-06-22T01:57:26;47.26;41.53;59.84;;
41518;Laerm;27249;48.094;-1.690;2023-06-22T01:59:59;54.10;42.03;66.45;;
41518;Laerm;27249;48.094;-1.690;2023-06-22T02:02:25;54.07;42.16;71.32;;
41518;Laerm;27249;48.094;-1.690;2023-06-22T02:04:56;46.05;42.16;59.95;;
41518;Laerm;27249;48.094;-1.690;2023-06-22T02:07:23;49.32;41.68;61.15;;
41518;Laerm;27249;48.094;-1.690;2023-06-22T02:09:48;49.12;41.46;59.41;;
41518;Laerm;27249;48.094;-1.690;2023-06-22T02:12:17;44.21;41.61;63.01;;
41518;Laerm;27249;48.094;-1.690;2023-06-22T02:14:43;49.87;42.65;60.65;;
41518;Laerm;27249;48.094;-1.690;2023-06-22T02:17:08;48.46;40.80;70.87;;
41518;Laerm;27249;48.094;-1.690;2023-06-22T02:19:37;49.10;42.59;70.05;;
41518;Laerm;27249;48.094;-1.690;2023-06-22T02:22:03;50.81;41.75;72.49;;
41518;Laerm;27249;48.094;-1.690;2023-06-22T02:24:28;51.52;41.53;64.46;;
41518;Laerm;27249;48.094;-1.690;2023-06-22T02:26:56;50.77;41.46;63.98;;
41518;Laerm;27249;48.094;-1.690;2023-06-22T02:29:21;45.96;41.89;67.95;;
41518;Laerm;27249;48.094;-1.690;2023-06-22T02:31:47;49.89;41.75;65.28;;
41518;Laerm;27249;48.094;-1.690;2023-06-22T02:34:12;50.13;41.68;70.39;;
41518;Laerm;27249;48.094;-1.690;2023-06-22T02:36:43;49.34;41.46;73.38;;
41518;Laerm;27249;48.094;-1.690;2023-06-22T02:39:15;54.88;43.14;63.73;;
41518;Laerm;27249;48.094;-1.690;2023-06-22T02:41:40;51.11;42.29;65.29;;
41518;Laerm;27249;48.094;-1.690;2023-06-22T02:44:06;48.66;41.94;58.11;;
41518;Laerm;27249;48.094;-1.690;2023-06-22T02:46:31;48.42;42.16;64.95;;
41518;Laerm;27249;48.094;-1.690;2023-06-22T02:48:56;50.25;41.61;73.20;;
41518;Laerm;27249;48.094;-1.690;2023-06-22T02:51:21;51.08;42.65;58.85;;
41518;Laerm;27249;48.094;-1.690;2023-06-22T02:53:47;48.51;41.53;60.30;;
41518;Laerm;27249;48.094;-1.690;2023-06-22T02:56:12;51.43;41.06;68.09;;
41518;Laerm;27249;48.094;-1.690;2023-06-22T02:58:38;48.80;41.61;58.68;;
41518;Laerm;27249;48.094;-1.690;2023-06-22T03:01:04;51.05;42.35;65.84;;
41518;Laerm;27249;48.094;-1.690;2023-06-22T03:03:29;46.22;41.30;56.88;;
41518;Laerm;27249;48.094;-1.690;2023-06-22T03:05:55;49.68;42.16;66.68;;
41518;Laerm;27249;48.094;-1.690;2023-06-22T03:08:20;49.92;41.61;63.13;;
41518;Laerm;27249;48.094;-1.690;2023-06-22T03:10:45;50.00;41.82;68.09;;
41518;Laerm;27249;48.094;-1.690;2023-06-22T03:13:10;53.82;43.72;66.12;;
41518;Laerm;27249;48.094;-1.690;2023-06-22T03:15:35;50.23;41.06;67.85;;
41518;Laerm;27249;48.094;-1.690;2023-06-22T03:18:01;51.47;42.53;74.55;;
41518;Laerm;27249;48.094;-1.690;2023-06-22T03:20:26;51.31;42.41;65.13;;
41518;Laerm;27249;48.094;-1.690;2023-06-22T03:22:58;49.98;42.24;71.71;;
41518;Laerm;27249;48.094;-1.690;2023-06-22T03:25:23;52.51;43.34;75.64;;
41518;Laerm;27249;48.094;-1.690;2023-06-22T03:27:48;52.90;42.29;64.04;;
41518;Laerm;27249;48.094;-1.690;2023-06-22T03:30:14;51.18;42.35;64.55;;
41518;Laerm;27249;48.094;-1.690;2023-06-22T03:32:39;52.62;42.59;65.54;;
41518;Laerm;27249;48.094;-1.690;2023-06-22T03:35:04;52.28;43.99;75.63;;
41518;Laerm;27249;48.094;-1.690;2023-06-22T03:37:31;51.69;42.47;64.48;;
41518;Laerm;27249;48.094;-1.690;2023-06-22T03:39:56;52.33;43.81;71.79;;
41518;Laerm;27249;48.094;-1.690;2023-06-22T03:42:21;54.22;43.90;67.75;;
41518;Laerm;27249;48.094;-1.690;2023-06-22T03:44:47;54.06;43.49;67.99;;
41518;Laerm;27249;48.094;-1.690;2023-06-22T03:47:12;50.07;43.58;62.36;;
41518;Laerm;27249;48.094;-1.690;2023-06-22T03:49:38;50.13;42.22;62.59;;
41518;Laerm;27249;48.094;-1.690;2023-06-22T03:52:03;53.45;43.97;61.52;;
41518;Laerm;27249;48.094;-1.690;2023-06-22T03:54:29;53.31;44.15;67.58;;
41518;Laerm;27249;48.094;-1.690;2023-06-22T03:56:54;50.43;44.07;59.80;;
41518;Laerm;27249;48.094;-1.690;2023-06-22T03:59:19;55.60;45.30;69.63;;
41518;Laerm;27249;48.094;-1.690;2023-06-22T04:01:45;54.91;43.54;67.95;;
41518;Laerm;27249;48.094;-1.690;2023-06-22T04:04:11;50.83;43.77;65.69;;
41518;Laerm;27249;48.094;-1.690;2023-06-22T04:06:36;51.04;43.24;74.23;;
41518;Laerm;27249;48.094;-1.690;2023-06-22T04:09:02;50.18;42.88;60.78;;
41518;Laerm;27249;48.094;-1.690;2023-06-22T04:11:27;53.78;43.99;69.65;;
41518;Laerm;27249;48.094;-1.690;2023-06-22T04:13:52;55.42;43.49;65.98;;
41518;Laerm;27249;48.094;-1.690;2023-06-22T04:16:18;53.08;44.15;64.61;;
41518;Laerm;27249;48.094;-1.690;2023-06-22T04:18:44;52.37;45.54;71.84;;
41518;Laerm;27249;48.094;-1.690;2023-06-22T04:21:10;52.25;44.19;59.88;;
41518;Laerm;27249;48.094;-1.690;2023-06-22T04:23:35;51.14;44.03;68.14;;
41518;Laerm;27249;48.094;-1.690;2023-06-22T04:26:00;55.92;43.44;71.15;;
41518;Laerm;27249;48.094;-1.690;2023-06-22T04:28:25;55.04;45.14;76.55;;
41518;Laerm;27249;48.094;-1.690;2023-06-22T04:30:51;52.10;44.94;63.37;;
41518;Laerm;27249;48.094;-1.690;2023-06-22T04:33:16;54.48;46.20;71.75;;
41518;Laerm;27249;48.094;-1.690;2023-06-22T04:35:42;53.29;43.99;70.79;;
41518;Laerm;27249;48.094;-1.690;2023-06-22T04:38:09;53.22;44.73;63.74;;
41518;Laerm;27249;48.094;-1.690;2023-06-22T04:40:35;55.23;45.01;78.41;;
41518;Laerm;27249;48.094;-1.690;2023-06-22T04:43:00;53.56;44.19;74.96;;
41518;Laerm;27249;48.094;-1.690;2023-06-22T04:45:27;54.21;44.51;64.71;;
41518;Laerm;27249;48.094;-1.690;2023-06-22T04:47:53;54.06;46.52;62.67;;
41518;Laerm;27249;48.094;-1.690;2023-06-22T04:50:18;52.98;45.72;59.93;;
41518;Laerm;27249;48.094;-1.690;2023-06-22T04:52:46;54.20;47.10;62.63;;
41518;Laerm;27249;48.094;-1.690;2023-06-22T04:55:11;57.05;46.28;68.31;;
41518;Laerm;27249;48.094;-1.690;2023-06-22T04:57:36;55.24;47.32;68.45;;
41518;Laerm;27249;48.094;-1.690;2023-06-22T05:00:04;54.86;44.47;70.40;;
41518;Laerm;27249;48.094;-1.690;2023-06-22T05:02:43;54.61;44.94;64.18;;
41518;Laerm;27249;48.094;-1.690;2023-06-22T05:05:08;54.87;47.50;64.75;;
41518;Laerm;27249;48.094;-1.690;2023-06-22T05:07:34;55.92;46.10;64.18;;
41518;Laerm;27249;48.094;-1.690;2023-06-22T05:10:00;55.47;45.94;64.89;;
41518;Laerm;27249;48.094;-1.690;2023-06-22T05:12:25;54.44;45.69;64.47;;
41518;Laerm;27249;48.094;-1.690;2023-06-22T05:14:50;54.73;47.07;62.27;;
41518;Laerm;27249;48.094;-1.690;2023-06-22T05:17:15;59.61;49.51;69.77;;
41518;Laerm;27249;48.094;-1.690;2023-06-22T05:19:44;54.84;46.78;67.84;;
41518;Laerm;27249;48.094;-1.690;2023-06-22T05:22:13;55.51;46.45;62.82;;
41518;Laerm;27249;48.094;-1.690;2023-06-22T05:24:38;54.27;46.62;61.92;;
41518;Laerm;27249;48.094;-1.690;2023-06-22T05:27:04;63.98;50.30;85.71;;
41518;Laerm;27249;48.094;-1.690;2023-06-22T05:29:29;56.60;47.20;64.95;;
41518;Laerm;27249;48.094;-1.690;2023-06-22T05:31:54;58.08;47.42;66.14;;
41518;Laerm;27249;48.094;-1.690;2023-06-22T05:34:19;59.15;51.30;70.17;;
41518;Laerm;27249;48.094;-1.690;2023-06-22T05:36:45;57.12;49.78;67.50;;
41518;Laerm;27249;48.094;-1.690;2023-06-22T05:39:11;57.58;49.59;67.02;;
41518;Laerm;27249;48.094;-1.690;2023-06-22T05:41:37;58.18;52.73;65.91;;
41518;Laerm;27249;48.094;-1.690;2023-06-22T05:44:02;57.99;51.36;65.71;;
41518;Laerm;27249;48.094;-1.690;2023-06-22T05:46:28;57.69;50.13;63.49;;
41518;Laerm;27249;48.094;-1.690;2023-06-22T05:48:53;58.57;51.97;67.32;;
41518;Laerm;27249;48.094;-1.690;2023-06-22T05:51:18;58.11;50.09;68.25;;
41518;Laerm;27249;48.094;-1.690;2023-06-22T05:53:44;70.06;50.77;83.06;;
41518;Laerm;27249;48.094;-1.690;2023-06-22T05:56:12;57.10;51.26;64.53;;
41518;Laerm;27249;48.094;-1.690;2023-06-22T05:58:38;58.47;49.88;70.93;;
41518;Laerm;27249;48.094;-1.690;2023-06-22T06:01:03;59.20;52.69;64.40;;
41518;Laerm;27249;48.094;-1.690;2023-06-22T06:03:28;59.67;54.73;66.24;;
41518;Laerm;27249;48.094;-1.690;2023-06-22T06:05:53;58.81;53.50;64.17;;
41518;Laerm;27249;48.094;-1.690;2023-06-22T06:08:19;60.24;51.84;68.64;;
41518;Laerm;27249;48.094;-1.690;2023-06-22T06:10:44;58.84;51.99;65.08;;
41518;Laerm;27249;48.094;-1.690;2023-06-22T06:13:09;58.66;52.63;66.74;;
41518;Laerm;27249;48.094;-1.690;2023-06-22T06:15:34;58.87;53.52;70.79;;
41518;Laerm;27249;48.094;-1.690;2023-06-22T06:18:00;59.28;51.51;65.29;;
41518;Laerm;27249;48.094;-1.690;2023-06-22T06:20:25;58.27;51.87;67.31;;
41518;Laerm;27249;48.094;-1.690;2023-06-22T06:22:53;57.99;51.88;68.94;;
41518;Laerm;27249;48.094;-1.690;2023-06-22T06:25:18;57.03;52.36;63.19;;
41518;Laerm;27249;48.094;-1.690;2023-06-22T06:27:45;58.11;50.78;66.11;;
41518;Laerm;27249;48.094;-1.690;2023-06-22T06:30:11;58.79;51.47;71.46;;
41518;Laerm;27249;48.094;-1.690;2023-06-22T06:32:37;58.19;51.44;70.40;;
41518;Laerm;27249;48.094;-1.690;2023-06-22T06:35:03;56.95;51.78;64.67;;
41518;Laerm;27249;48.094;-1.690;2023-06-22T06:37:29;56.33;51.10;64.77;;
41518;Laerm;27249;48.094;-1.690;2023-06-22T06:39:55;57.48;51.39;67.88;;
41518;Laerm;27249;48.094;-1.690;2023-06-22T06:42:20;57.48;50.83;69.09;;
41518;Laerm;27249;48.094;-1.690;2023-06-22T06:44:47;57.27;52.11;63.30;;
41518;Laerm;27249;48.094;-1.690;2023-06-22T06:47:13;57.59;52.90;66.02;;
41518;Laerm;27249;48.094;-1.690;2023-06-22T06:49:38;62.14;53.68;70.32;;
41518;Laerm;27249;48.094;-1.690;2023-06-22T06:52:03;62.82;55.32;73.51;;
41518;Laerm;27249;48.094;-1.690;2023-06-22T06:54:28;59.71;51.91;67.89;;
41518;Laerm;27249;48.094;-1.690;2023-06-22T06:56:54;57.04;51.63;66.78;;
41518;Laerm;27249;48.094;-1.690;2023-06-22T06:59:20;57.15;50.51;64.10;;
41518;Laerm;27249;48.094;-1.690;2023-06-22T07:01:46;57.14;51.91;61.77;;
41518;Laerm;27249;48.094;-1.690;2023-06-22T07:04:13;56.71;50.81;63.74;;
41518;Laerm;27249;48.094;-1.690;2023-06-22T07:06:39;56.95;50.40;67.74;;
41518;Laerm;27249;48.094;-1.690;2023-06-22T07:09:04;56.94;50.80;62.58;;
41518;Laerm;27249;48.094;-1.690;2023-06-22T07:11:29;56.02;48.74;64.28;;
41518;Laerm;27249;48.094;-1.690;2023-06-22T07:13:54;58.11;50.14;66.23;;
41518;Laerm;27249;48.094;-1.690;2023-06-22T07:16:20;56.37;51.04;63.21;;
41518;Laerm;27249;48.094;-1.690;2023-06-22T07:18:45;58.45;50.46;64.63;;
41518;Laerm;27249;48.094;-1.690;2023-06-22T07:21:10;57.23;51.00;62.69;;
41518;Laerm;27249;48.094;-1.690;2023-06-22T07:23:36;57.64;50.43;71.32;;
41518;Laerm;27249;48.094;-1.690;2023-06-22T07:26:01;56.37;50.41;66.05;;
41518;Laerm;27249;48.094;-1.690;2023-06-22T07:28:27;54.49;48.40;60.16;;
41518;Laerm;27249;48.094;-1.690;2023-06-22T07:30:52;54.80;48.91;62.05;;
41518;Laerm;27249;48.094;-1.690;2023-06-22T07:33:17;56.67;48.03;65.44;;
41518;Laerm;27249;48.094;-1.690;2023-06-22T07:35:42;56.11;49.21;63.97;;
41518;Laerm;27249;48.094;-1.690;2023-06-22T07:38:09;57.06;50.37;67.48;;
41518;Laerm;27249;48.094;-1.690;2023-06-22T07:40:34;56.95;51.51;64.71;;
41518;Laerm;27249;48.094;-1.690;2023-06-22T07:43:00;56.46;50.07;64.38;;
41518;Laerm;27249;48.094;-1.690;2023-06-22T07:45:25;57.11;51.00;69.32;;
41518;Laerm;27249;48.094;-1.690;2023-06-22T07:47:50;56.11;48.71;71.50;;
41518;Laerm;27249;48.094;-1.690;2023-06-22T07:50:16;55.95;49.53;62.69;;
41518;Laerm;27249;48.094;-1.690;2023-06-22T07:52:41;55.75;48.99;63.28;;
41518;Laerm;27249;48.094;-1.690;2023-06-22T07:55:06;56.21;50.54;67.10;;
41518;Laerm;27249;48.094;-1.690;2023-06-22T07:57:32;60.76;50.68;71.57;;
41518;Laerm;27249;48.094;-1.690;2023-06-22T07:59:59;57.56;49.18;66.41;;
41518;Laerm;27249;48.094;-1.690;2023-06-22T08:02:24;56.00;48.21;67.17;;
41518;Laerm;27249;48.094;-1.690;2023-06-22T08:04:50;55.09;47.70;60.92;;
41518;Laerm;27249;48.094;-1.690;2023-06-22T08:07:15;54.96;46.73;62.24;;
41518;Laerm;27249;48.094;-1.690;2023-06-22T08:09:45;55.70;48.88;61.68;;
41518;Laerm;27249;48.094;-1.690;2023-06-22T08:12:10;56.51;48.71;68.81;;
41518;Laerm;27249;48.094;-1.690;2023-06-22T08:14:37;56.85;48.81;66.74;;
41518;Laerm;27249;48.094;-1.690;2023-06-22T08:17:02;54.97;48.58;60.28;;
41518;Laerm;27249;48.094;-1.690;2023-06-22T08:19:28;56.05;47.77;61.42;;
41518;Laerm;27249;48.094;-1.690;2023-06-22T08:21:53;54.18;45.66;63.60;;
41518;Laerm;27249;48.094;-1.690;2023-06-22T08:24:18;54.23;46.13;65.49;;
41518;Laerm;27249;48.094;-1.690;2023-06-22T08:26:43;55.08;46.30;73.50;;
41518;Laerm;27249;48.094;-1.690;2023-06-22T08:29:09;55.02;49.14;60.84;;
41518;Laerm;27249;48.094;-1.690;2023-06-22T08:31:34;54.73;48.92;62.93;;
41518;Laerm;27249;48.094;-1.690;2023-06-22T08:33:59;55.46;48.12;68.13;;
41518;Laerm;27249;48.094;-1.690;2023-06-22T08:36:25;56.01;48.49;63.34;;
41518;Laerm;27249;48.094;-1.690;2023-06-22T08:38:53;55.94;49.46;64.97;;
41518;Laerm;27249;48.094;-1.690;2023-06-22T08:41:19;56.99;47.98;67.98;;
41518;Laerm;27249;48.094;-1.690;2023-06-22T08:43:44;55.84;46.77;67.39;;
41518;Laerm;27249;48.094;-1.690;2023-06-22T08:46:09;57.57;46.55;69.17;;
41518;Laerm;27249;48.094;-1.690;2023-06-22T08:48:35;60.43;52.68;68.36;;
41518;Laerm;27249;48.094;-1.690;2023-06-22T08:51:00;56.32;50.84;62.45;;
41518;Laerm;27249;48.094;-1.690;2023-06-22T08:53:25;58.44;48.16;71.58;;
41518;Laerm;27249;48.094;-1.690;2023-06-22T08:55:50;54.77;49.14;65.33;;
41518;Laerm;27249;48.094;-1.690;2023-06-22T08:58:16;55.24;48.18;59.48;;
41518;Laerm;27249;48.094;-1.690;2023-06-22T09:00:41;56.78;46.89;69.38;;
41518;Laerm;27249;48.094;-1.690;2023-06-22T09:03:06;55.82;50.12;61.98;;
41518;Laerm;27249;48.094;-1.690;2023-06-22T09:05:31;55.99;48.64;64.01;;
41518;Laerm;27249;48.094;-1.690;2023-06-22T09:07:57;54.47;46.07;61.16;;
41518;Laerm;27249;48.094;-1.690;2023-06-22T09:10:23;54.50;46.25;63.77;;
41518;Laerm;27249;48.094;-1.690;2023-06-22T09:12:49;55.75;50.97;61.92;;
41518;Laerm;27249;48.094;-1.690;2023-06-22T09:15:14;54.12;45.30;60.55;;
41518;Laerm;27249;48.094;-1.690;2023-06-22T09:17:40;58.26;45.75;69.87;;
41518;Laerm;27249;48.094;-1.690;2023-06-22T09:20:06;56.18;50.02;62.10;;
41518;Laerm;27249;48.094;-1.690;2023-06-22T09:22:32;53.66;47.52;61.84;;
41518;Laerm;27249;48.094;-1.690;2023-06-22T09:24:58;57.57;47.68;71.05;;
41518;Laerm;27249;48.094;-1.690;2023-06-22T09:27:24;54.27;47.52;67.39;;
41518;Laerm;27249;48.094;-1.690;2023-06-22T09:29:51;55.49;47.76;65.18;;
41518;Laerm;27249;48.094;-1.690;2023-06-22T09:32:16;55.28;46.93;62.16;;
41518;Laerm;27249;48.094;-1.690;2023-06-22T09:34:41;55.10;48.41;63.38;;
41518;Laerm;27249;48.094;-1.690;2023-06-22T09:37:06;56.38;51.22;64.51;;
41518;Laerm;27249;48.094;-1.690;2023-06-22T09:39:32;57.03;49.64;67.61;;
41518;Laerm;27249;48.094;-1.690;2023-06-22T09:42:00;55.20;48.52;61.18;;
41518;Laerm;27249;48.094;-1.690;2023-06-22T09:44:26;56.44;49.74;68.09;;
41518;Laerm;27249;48.094;-1.690;2023-06-22T09:46:51;56.21;48.55;62.90;;
41518;Laerm;27249;48.094;-1.690;2023-06-22T09:49:16;54.77;46.41;62.61;;
41518;Laerm;27249;48.094;-1.690;2023-06-22T09:51:42;55.75;48.21;61.82;;
41518;Laerm;27249;48.094;-1.690;2023-06-22T09:54:07;56.31;48.26;65.56;;
41518;Laerm;27249;48.094;-1.690;2023-06-22T09:56:32;56.75;51.03;62.52;;
41518;Laerm;27249;48.094;-1.690;2023-06-22T09:58:57;55.21;47.10;60.68;;
41518;Laerm;27249;48.094;-1.690;2023-06-22T10:01:22;57.49;50.05;67.21;;
41518;Laerm;27249;48.094;-1.690;2023-06-22T10:03:48;56.00;50.51;61.97;;
41518;Laerm;27249;48.094;-1.690;2023-06-22T10:06:13;55.92;49.88;67.28;;
41518;Laerm;27249;48.094;-1.690;2023-06-22T10:08:38;55.93;50.16;66.31;;
41518;Laerm;27249;48.094;-1.690;2023-06-22T10:11:05;56.05;49.58;62.08;;
41518;Laerm;27249;48.094;-1.690;2023-06-22T10:13:30;55.96;48.78;62.11;;
41518;Laerm;27249;48.094;-1.690;2023-06-22T10:15:56;55.86;51.13;65.46;;
41518;Laerm;27249;48.094;-1.690;2023-06-22T10:18:21;55.42;49.93;61.37;;
41518;Laerm;27249;48.094;-1.690;2023-06-22T10:20:47;55.08;48.16;63.20;;
41518;Laerm;27249;48.094;-1.690;2023-06-22T10:23:12;55.37;48.88;63.09;;
41518;Laerm;27249;48.094;-1.690;2023-06-22T10:25:38;56.65;50.88;67.00;;
41518;Laerm;27249;48.094;-1.690;2023-06-22T10:28:03;57.01;51.02;65.96;;
41518;Laerm;27249;48.094;-1.690;2023-06-22T10:30:28;56.87;50.85;66.95;;
41518;Laerm;27249;48.094;-1.690;2023-06-22T10:32:54;56.74;50.53;62.80;;
41518;Laerm;27249;48.094;-1.690;2023-06-22T10:35:19;56.06;49.19;63.30;;
41518;Laerm;27249;48.094;-1.690;2023-06-22T10:37:45;57.16;50.27;67.12;;
41518;Laerm;27249;48.094;-1.690;2023-06-22T10:40:11;56.23;50.50;60.94;;
41518;Laerm;27249;48.094;-1.690;2023-06-22T10:42:37;57.03;50.71;65.49;;
41518;Laerm;27249;48.094;-1.690;2023-06-22T10:45:02;54.17;48.25;61.12;;
41518;Laerm;27249;48.094;-1.690;2023-06-22T10:47:28;56.65;50.86;64.70;;
41518;Laerm;27249;48.094;-1.690;2023-06-22T10:49:53;55.48;48.76;61.64;;
41518;Laerm;27249;48.094;-1.690;2023-06-22T10:52:18;57.21;49.35;68.58;;
41518;Laerm;27249;48.094;-1.690;2023-06-22T10:54:43;54.84;48.46;67.59;;
41518;Laerm;27249;48.094;-1.690;2023-06-22T10:57:09;57.63;48.80;67.55;;
41518;Laerm;27249;48.094;-1.690;2023-06-22T10:59:34;55.79;48.12;63.75;;
41518;Laerm;27249;48.094;-1.690;2023-06-22T11:01:59;55.87;49.21;63.24;;
41518;Laerm;27249;48.094;-1.690;2023-06-22T11:04:24;55.17;48.37;66.45;;
41518;Laerm;27249;48.094;-1.690;2023-06-22T11:06:50;57.20;48.36;69.62;;
41518;Laerm;27249;48.094;-1.690;2023-06-22T11:09:15;55.46;46.30;65.44;;
41518;Laerm;27249;48.094;-1.690;2023-06-22T11:11:45;56.10;44.62;70.95;;
41518;Laerm;27249;48.094;-1.690;2023-06-22T11:14:11;54.96;45.94;62.80;;
41518;Laerm;27249;48.094;-1.690;2023-06-22T11:16:36;58.55;50.91;71.89;;
41518;Laerm;27249;48.094;-1.690;2023-06-22T11:19:01;55.12;45.11;63.73;;
41518;Laerm;27249;48.094;-1.690;2023-06-22T11:21:28;55.81;49.41;62.81;;
41518;Laerm;27249;48.094;-1.690;2023-06-22T11:23:53;55.48;47.98;64.80;;
41518;Laerm;27249;48.094;-1.690;2023-06-22T11:26:18;55.24;49.07;62.72;;
41518;Laerm;27249;48.094;-1.690;2023-06-22T11:28:43;56.13;46.84;63.52;;
41518;Laerm;27249;48.094;-1.690;2023-06-22T11:31:09;56.50;49.69;67.80;;
41518;Laerm;27249;48.094;-1.690;2023-06-22T11:33:34;55.48;48.32;65.98;;
41518;Laerm;27249;48.094;-1.690;2023-06-22T11:35:59;55.44;48.55;63.25;;
41518;Laerm;27249;48.094;-1.690;2023-06-22T11:38:25;56.78;49.10;65.38;;
41518;Laerm;27249;48.094;-1.690;2023-06-22T11:40:50;55.53;49.21;62.60;;
41518;Laerm;27249;48.094;-1.690;2023-06-22T11:43:15;56.12;49.50;65.20;;
41518;Laerm;27249;48.094;-1.690;2023-06-22T11:45:41;56.47;49.39;63.01;;
41518;Laerm;27249;48.094;-1.690;2023-06-22T11:48:06;63.66;49.07;92.24;;
41518;Laerm;27249;48.094;-1.690;2023-06-22T11:50:31;55.73;47.70;67.61;;
41518;Laerm;27249;48.094;-1.690;2023-06-22T11:53:00;55.44;48.34;60.52;;
41518;Laerm;27249;48.094;-1.690;2023-06-22T11:55:26;56.48;49.43;67.03;;
41518;Laerm;27249;48.094;-1.690;2023-06-22T11:57:53;56.51;49.43;66.98;;
41518;Laerm;27249;48.094;-1.690;2023-06-22T12:00:19;57.62;51.13;65.22;;
41518;Laerm;27249;48.094;-1.690;2023-06-22T12:02:45;55.16;46.57;64.85;;
41518;Laerm;27249;48.094;-1.690;2023-06-22T12:05:10;56.36;50.89;65.61;;
41518;Laerm;27249;48.094;-1.690;2023-06-22T12:07:36;57.21;50.15;65.86;;
41518;Laerm;27249;48.094;-1.690;2023-06-22T12:10:02;55.93;48.88;65.81;;
41518;Laerm;27249;48.094;-1.690;2023-06-22T12:12:28;55.48;47.95;66.04;;
41518;Laerm;27249;48.094;-1.690;2023-06-22T12:14:53;56.03;48.69;62.93;;
41518;Laerm;27249;48.094;-1.690;2023-06-22T12:17:18;55.04;47.26;61.88;;
41518;Laerm;27249;48.094;-1.690;2023-06-22T12:19:43;56.76;50.21;66.16;;
41518;Laerm;27249;48.094;-1.690;2023-06-22T12:22:08;55.84;45.45;67.82;;
41518;Laerm;27249;48.094;-1.690;2023-06-22T12:24:34;56.24;46.30;74.56;;
41518;Laerm;27249;48.094;-1.690;2023-06-22T12:26:59;55.72;49.04;61.03;;
41518;Laerm;27249;48.094;-1.690;2023-06-22T12:29:24;64.36;45.36;83.30;;
41518;Laerm;27249;48.094;-1.690;2023-06-22T12:31:49;54.70;48.43;60.04;;
41518;Laerm;27249;48.094;-1.690;2023-06-22T12:34:15;54.00;46.05;60.54;;
41518;Laerm;27249;48.094;-1.690;2023-06-22T12:36:40;55.49;48.43;62.30;;
41518;Laerm;27249;48.094;-1.690;2023-06-22T12:39:05;56.07;49.56;65.64;;
41518;Laerm;27249;48.094;-1.690;2023-06-22T12:41:30;56.24;49.93;75.35;;
41518;Laerm;27249;48.094;-1.690;2023-06-22T12:43:55;56.39;49.10;71.19;;
41518;Laerm;27249;48.094;-1.690;2023-06-22T12:46:21;55.93;49.55;63.44;;
41518;Laerm;27249;48.094;-1.690;2023-06-22T12:48:46;55.70;46.69;62.92;;
41518;Laerm;27249;48.094;-1.690;2023-06-22T12:51:11;54.87;46.97;70.44;;
41518;Laerm;27249;48.094;-1.690;2023-06-22T12:53:36;55.16;46.73;61.30;;
41518;Laerm;27249;48.094;-1.690;2023-06-22T12:56:01;56.82;49.78;66.11;;
41518;Laerm;27249;48.094;-1.690;2023-06-22T12:58:27;55.68;49.75;63.46;;
41518;Laerm;27249;48.094;-1.690;2023-06-22T13:00:52;54.95;48.55;61.91;;
41518;Laerm;27249;48.094;-1.690;2023-06-22T13:03:17;57.32;46.02;68.34;;
41518;Laerm;27249;48.094;-1.690;2023-06-22T13:05:42;56.77;49.24;64.79;;
41518;Laerm;27249;48.094;-1.690;2023-06-22T13:08:07;55.90;48.61;61.45;;
41518;Laerm;27249;48.094;-1.690;2023-06-22T13:10:33;56.32;50.18;67.93;;
41518;Laerm;27249;48.094;-1.690;2023-06-22T13:12:58;55.13;48.00;64.13;;
41518;Laerm;27249;48.094;-1.690;2023-06-22T13:15:26;57.13;51.29;70.43;;
41518;Laerm;27249;48.094;-1.690;2023-06-22T13:17:51;55.81;48.21;68.30;;
41518;Laerm;27249;48.094;-1.690;2023-06-22T13:20:17;55.98;48.53;68.17;;
41518;Laerm;27249;48.094;-1.690;2023-06-22T13:22:42;54.63;47.96;61.60;;
41518;Laerm;27249;48.094;-1.690;2023-06-22T13:25:09;56.75;50.61;62.58;;
41518;Laerm;27249;48.094;-1.690;2023-06-22T13:27:37;53.92;45.45;65.59;;
41518;Laerm;27249;48.094;-1.690;2023-06-22T13:30:02;56.84;49.07;65.37;;
41518;Laerm;27249;48.094;-1.690;2023-06-22T13:32:27;54.84;46.97;61.33;;